Time;durP1;ratioP1;P1;durP2;ratioP2;P2;SDS_P1;SDS_P2;PMS_P1;PMS_P2;Temp;Humidity;BMP_temperature;BMP_pressure;BME280_temperature;BME280_humidity;BME280_pressure;Samples;Min_cycle;Max_cycle;Signal;HPM_P1;HPM_P2
2023/05/20 00:00:52;;;;;;;11.00;10.70;;;14.50;99.90;;;;;;6208297;23;20212;-77
2023/05/20 00:03:20;;;;;;;10.90;10.60;;;14.50;99.90;;;;;;6205572;23;20286;-77
2023/05/20 00:05:48;;;;;;;11.13;10.82;;;14.50;99.90;;;;;;6204584;23;20302;-78
2023/05/20 00:08:15;;;;;;;11.48;11.07;;;14.50;99.90;;;;;;6203244;22;20202;-78
2023/05/20 00:10:44;;;;;;;11.18;10.88;;;14.50;99.90;;;;;;6203273;23;20211;-78
2023/05/20 00:13:12;;;;;;;11.18;10.88;;;14.50;99.90;;;;;;6202856;23;20243;-78
2023/05/20 00:15:40;;;;;;;11.00;10.70;;;14.50;99.90;;;;;;6203099;23;20251;-78
2023/05/20 00:18:07;;;;;;;11.40;11.00;;;14.50;99.90;;;;;;6202489;23;20223;-78
2023/05/20 00:20:35;;;;;;;10.93;10.63;;;14.50;99.90;;;;;;6202784;23;20319;-78
2023/05/20 00:23:02;;;;;;;10.88;10.57;;;14.50;99.90;;;;;;6197218;23;20207;-78
2023/05/20 00:25:31;;;;;;;10.98;10.68;;;14.50;99.90;;;;;;6197208;23;20208;-79
2023/05/20 00:28:00;;;;;;;10.85;10.55;;;14.50;99.90;;;;;;6197671;23;20195;-78
2023/05/20 00:30:28;;;;;;;10.85;10.55;;;14.50;99.90;;;;;;6197714;23;20203;-78
2023/05/20 00:32:55;;;;;;;11.00;10.70;;;14.50;99.90;;;;;;6197215;23;20213;-78
2023/05/20 00:35:23;;;;;;;11.07;10.77;;;14.50;99.90;;;;;;6197530;23;20262;-78
2023/05/20 00:37:50;;;;;;;11.00;10.70;;;14.50;99.90;;;;;;6197347;23;20270;-78
2023/05/20 00:40:19;;;;;;;11.07;10.77;;;14.50;99.90;;;;;;6197648;23;20207;-78
2023/05/20 00:42:47;;;;;;;11.07;10.77;;;14.50;99.90;;;;;;6197931;23;20192;-78
2023/05/20 00:45:16;;;;;;;11.23;10.93;;;14.50;99.90;;;;;;6197687;23;20242;-78
2023/05/20 00:47:44;;;;;;;10.95;10.65;;;14.50;99.90;;;;;;6200598;23;20196;-78
2023/05/20 00:50:12;;;;;;;11.10;10.80;;;14.50;99.90;;;;;;6197767;23;20269;-78
2023/05/20 00:52:40;;;;;;;11.25;10.95;;;14.50;99.90;;;;;;6197438;23;20702;-78
2023/05/20 00:55:09;;;;;;;11.00;10.70;;;14.50;99.90;;;;;;6196760;23;20198;-79
2023/05/20 00:57:36;;;;;;;11.15;10.85;;;14.50;99.90;;;;;;6197084;23;20227;-77
2023/05/20 01:00:09;;;;;;;11.10;10.80;;;14.60;99.90;;;;;;6198027;23;20196;-77
2023/05/20 01:02:38;;;;;;;11.25;10.95;;;14.60;99.90;;;;;;6196700;23;20207;-78
2023/05/20 01:05:07;;;;;;;10.98;10.68;;;14.60;99.90;;;;;;6196812;23;20208;-78
2023/05/20 01:07:35;;;;;;;10.90;10.60;;;14.60;99.90;;;;;;6196766;23;20188;-78
2023/05/20 01:10:03;;;;;;;11.10;10.80;;;14.60;99.90;;;;;;6196597;23;20226;-77
2023/05/20 01:12:38;;;;;;;11.20;10.90;;;14.60;99.90;;;;;;6196989;23;20234;-78
2023/05/20 01:15:10;;;;;;;11.10;10.80;;;14.50;99.90;;;;;;6196783;23;20191;-78
2023/05/20 01:17:44;;;;;;;10.93;10.63;;;14.50;99.90;;;;;;6197059;23;20188;-79
2023/05/20 01:20:13;;;;;;;11.00;10.70;;;14.50;99.90;;;;;;6196421;23;20203;-78
2023/05/20 01:22:50;;;;;;;11.10;10.80;;;14.50;99.90;;;;;;6197310;23;20206;-78
2023/05/20 01:25:18;;;;;;;10.85;10.55;;;14.50;99.90;;;;;;6198921;23;20199;-78
2023/05/20 01:27:46;;;;;;;10.90;10.60;;;14.50;99.90;;;;;;6198122;23;20219;-77
2023/05/20 01:30:14;;;;;;;11.23;10.93;;;14.60;99.90;;;;;;6198027;23;20192;-78
2023/05/20 01:32:47;;;;;;;10.93;10.63;;;14.50;99.90;;;;;;6198493;23;20231;-77
2023/05/20 01:35:16;;;;;;;10.88;10.57;;;14.50;99.90;;;;;;6198308;23;20195;-78
2023/05/20 01:37:45;;;;;;;11.07;10.77;;;14.50;99.90;;;;;;6198786;23;20215;-78
2023/05/20 01:40:16;;;;;;;11.00;10.70;;;14.60;99.90;;;;;;6200677;23;20267;-77
2023/05/20 01:42:45;;;;;;;11.10;10.80;;;14.60;99.90;;;;;;6197362;23;20298;-79
2023/05/20 01:45:12;;;;;;;11.02;10.73;;;14.70;99.90;;;;;;6198302;23;20199;-78
2023/05/20 01:47:40;;;;;;;11.48;11.07;;;14.60;99.90;;;;;;6198393;23;20195;-77
2023/05/20 01:50:09;;;;;;;11.05;10.75;;;14.60;99.90;;;;;;6201698;23;20287;-77
2023/05/20 01:52:36;;;;;;;11.18;10.88;;;14.60;99.90;;;;;;6198090;23;20236;-78
2023/05/20 01:55:04;;;;;;;11.00;10.70;;;14.60;99.90;;;;;;6198516;23;20283;-78
2023/05/20 01:57:33;;;;;;;10.98;10.68;;;14.60;99.90;;;;;;6197586;23;20219;-78
2023/05/20 02:00:01;;;;;;;11.02;10.73;;;14.50;99.90;;;;;;6197643;23;20213;-79
2023/05/20 02:02:28;;;;;;;10.85;10.55;;;14.50;99.90;;;;;;6198070;23;20219;-77
2023/05/20 02:04:56;;;;;;;10.90;10.60;;;14.50;99.90;;;;;;6198941;23;20282;-77
2023/05/20 02:07:24;;;;;;;10.80;10.50;;;14.50;99.90;;;;;;6199023;23;20203;-80
2023/05/20 02:09:51;;;;;;;10.80;10.50;;;14.50;99.90;;;;;;6198340;23;20198;-78
2023/05/20 02:12:19;;;;;;;11.10;10.80;;;14.50;99.90;;;;;;6198019;23;20279;-78
2023/05/20 02:14:49;;;;;;;11.05;10.75;;;14.50;99.90;;;;;;6198065;22;20279;-79
2023/05/20 02:17:17;;;;;;;11.13;10.82;;;14.50;99.90;;;;;;6198349;23;20196;-79
2023/05/20 02:19:45;;;;;;;10.98;10.68;;;14.50;99.90;;;;;;6198551;23;20259;-78
2023/05/20 02:22:13;;;;;;;10.80;10.50;;;14.50;99.90;;;;;;6197882;23;20200;-78
2023/05/20 02:24:42;;;;;;;10.70;10.40;;;14.40;99.90;;;;;;6198007;23;20199;-79
2023/05/20 02:27:09;;;;;;;11.13;10.82;;;14.40;99.90;;;;;;6198245;23;20271;-80
2023/05/20 02:29:37;;;;;;;10.93;10.63;;;14.30;99.90;;;;;;6203468;23;20242;-79
2023/05/20 02:32:07;;;;;;;10.90;10.60;;;14.40;99.90;;;;;;6204582;23;20195;-79
2023/05/20 02:34:35;;;;;;;11.00;10.70;;;14.30;99.90;;;;;;6202675;23;20191;-78
2023/05/20 02:37:02;;;;;;;10.88;10.57;;;14.30;99.90;;;;;;6200003;23;20247;-78
2023/05/20 02:39:30;;;;;;;10.80;10.50;;;14.20;99.90;;;;;;6199123;23;20283;-78
2023/05/20 02:41:58;;;;;;;11.10;10.80;;;14.10;99.90;;;;;;6198694;23;20214;-79
2023/05/20 02:44:25;;;;;;;10.87;10.57;;;14.10;99.90;;;;;;6200707;23;20263;-78
2023/05/20 02:46:53;;;;;;;11.55;11.15;;;14.10;99.90;;;;;;6199957;23;20231;-79
2023/05/20 02:49:23;;;;;;;10.90;10.60;;;14.10;99.90;;;;;;6199397;23;20277;-78
2023/05/20 02:51:50;;;;;;;11.00;10.70;;;14.10;99.90;;;;;;6199115;23;20210;-80
2023/05/20 02:54:18;;;;;;;10.83;10.53;;;14.00;99.90;;;;;;6199066;23;20199;-79
2023/05/20 02:56:45;;;;;;;11.00;10.70;;;14.00;99.90;;;;;;6198541;23;20317;-78
2023/05/20 02:59:13;;;;;;;10.77;10.47;;;14.00;99.90;;;;;;6197958;23;20196;-79
2023/05/20 03:01:40;;;;;;;10.93;10.63;;;14.00;99.90;;;;;;6201366;23;20216;-79
2023/05/20 03:04:08;;;;;;;11.07;10.77;;;14.00;99.90;;;;;;6197980;23;20238;-79
2023/05/20 03:06:37;;;;;;;11.90;11.50;;;14.00;99.90;;;;;;6198248;23;20246;-78
2023/05/20 03:09:05;;;;;;;11.60;11.20;;;14.00;99.90;;;;;;6198058;23;20247;-79
2023/05/20 03:11:33;;;;;;;11.43;11.03;;;14.00;99.90;;;;;;6198412;23;20219;-78
2023/05/20 03:14:00;;;;;;;11.77;11.37;;;14.00;99.90;;;;;;6198294;23;20218;-79
2023/05/20 03:16:28;;;;;;;11.70;11.30;;;14.00;99.90;;;;;;6198534;23;20198;-78
2023/05/20 03:18:56;;;;;;;11.77;11.37;;;14.00;99.90;;;;;;6198535;23;20204;-79
2023/05/20 03:21:24;;;;;;;11.70;11.30;;;14.10;99.90;;;;;;6202894;23;20298;-79
2023/05/20 03:23:52;;;;;;;11.70;11.30;;;14.10;99.90;;;;;;6198102;23;20291;-79
2023/05/20 03:26:20;;;;;;;11.80;11.40;;;14.10;99.90;;;;;;6198932;23;20267;-79
2023/05/20 03:28:48;;;;;;;11.57;11.17;;;14.00;99.90;;;;;;6199281;23;20211;-79
2023/05/20 03:31:16;;;;;;;11.40;11.00;;;13.90;99.90;;;;;;6198080;23;20231;-79
2023/05/20 03:33:44;;;;;;;11.50;11.10;;;13.90;99.90;;;;;;6197498;23;20207;-80
2023/05/20 03:36:12;;;;;;;11.47;11.07;;;13.80;99.90;;;;;;6198005;23;20289;-80
2023/05/20 03:38:40;;;;;;;11.40;11.00;;;13.90;99.90;;;;;;6197527;23;20195;-79
2023/05/20 03:41:09;;;;;;;11.03;10.73;;;13.90;99.90;;;;;;6198005;23;20224;-79
2023/05/20 03:43:36;;;;;;;11.37;10.97;;;13.90;99.90;;;;;;6197839;23;20286;-79
2023/05/20 03:46:05;;;;;;;11.50;11.10;;;14.00;99.90;;;;;;6198331;23;20251;-78
2023/05/20 03:48:34;;;;;;;11.37;10.97;;;14.00;99.90;;;;;;6197361;23;20259;-78
2023/05/20 03:51:02;;;;;;;11.17;10.87;;;14.10;99.90;;;;;;6197666;23;20294;-78
2023/05/20 03:53:30;;;;;;;11.10;10.77;;;14.00;99.90;;;;;;6197690;23;20210;-79
2023/05/20 03:55:57;;;;;;;11.30;10.90;;;13.90;99.90;;;;;;6197991;23;20343;-79
2023/05/20 03:58:28;;;;;;;10.80;10.50;;;13.80;99.90;;;;;;6197371;23;20247;-79
2023/05/20 04:00:55;;;;;;;10.97;10.67;;;13.80;99.90;;;;;;6198178;23;20204;-78
2023/05/20 04:03:23;;;;;;;11.00;10.70;;;13.70;99.90;;;;;;6197964;23;20230;-78
2023/05/20 04:05:51;;;;;;;11.00;10.70;;;13.70;99.90;;;;;;6198196;23;20241;-79
2023/05/20 04:08:20;;;;;;;11.00;10.70;;;13.60;99.90;;;;;;6198113;23;20259;-79
2023/05/20 04:10:48;;;;;;;11.10;10.80;;;13.60;99.90;;;;;;6203479;23;20188;-78
2023/05/20 04:13:16;;;;;;;10.90;10.60;;;13.70;99.90;;;;;;6199065;23;20290;-78
2023/05/20 04:15:45;;;;;;;11.07;10.77;;;13.70;99.90;;;;;;6197618;23;20247;-79
2023/05/20 04:18:13;;;;;;;11.20;10.80;;;13.70;99.90;;;;;;6197125;23;20300;-80
2023/05/20 04:20:41;;;;;;;10.90;10.60;;;13.60;99.90;;;;;;6197914;23;20210;-79
2023/05/20 04:23:09;;;;;;;10.93;10.63;;;13.60;99.90;;;;;;6198177;23;20234;-78
2023/05/20 04:25:37;;;;;;;11.13;10.83;;;13.60;99.90;;;;;;6197666;23;20231;-78
2023/05/20 04:28:05;;;;;;;11.00;10.70;;;13.70;99.90;;;;;;6196469;23;20239;-79
2023/05/20 04:30:34;;;;;;;11.10;10.80;;;13.70;99.90;;;;;;6196755;23;20203;-78
2023/05/20 04:33:03;;;;;;;11.00;10.70;;;13.70;99.90;;;;;;6205153;23;20203;-79
2023/05/20 04:35:30;;;;;;;10.73;10.43;;;13.80;99.90;;;;;;6197316;23;20286;-79
2023/05/20 04:37:59;;;;;;;10.77;10.47;;;13.80;99.90;;;;;;6196062;23;20258;-79
2023/05/20 04:40:27;;;;;;;11.13;10.83;;;13.80;99.90;;;;;;6196922;23;20234;-78
2023/05/20 04:42:57;;;;;;;11.50;11.10;;;13.80;99.90;;;;;;6196397;22;20206;-78
2023/05/20 04:45:26;;;;;;;11.10;10.80;;;13.90;99.90;;;;;;6195889;23;20191;-78
2023/05/20 04:47:54;;;;;;;11.07;10.77;;;13.90;99.90;;;;;;6195514;23;20212;-80
2023/05/20 04:50:24;;;;;;;11.00;10.70;;;14.00;99.90;;;;;;6195776;23;20227;-78
2023/05/20 04:52:52;;;;;;;10.90;10.60;;;14.00;99.90;;;;;;6195959;23;20235;-80
2023/05/20 04:55:20;;;;;;;10.67;10.37;;;14.10;99.90;;;;;;6195505;23;20200;-78
2023/05/20 04:57:48;;;;;;;10.85;10.55;;;14.10;99.90;;;;;;6196181;23;20209;-78
2023/05/20 05:00:16;;;;;;;11.10;10.80;;;14.20;99.90;;;;;;6198283;23;20270;-80
2023/05/20 05:02:49;;;;;;;11.02;10.73;;;14.20;99.90;;;;;;6203129;22;20204;-79
2023/05/20 05:05:17;;;;;;;10.60;10.30;;;14.30;99.90;;;;;;6201683;23;20207;-81
2023/05/20 05:07:46;;;;;;;10.60;10.30;;;14.40;99.90;;;;;;6206151;23;20211;-81
2023/05/20 05:10:23;;;;;;;10.68;10.38;;;14.40;99.90;;;;;;6205928;23;20206;-81
2023/05/20 05:12:51;;;;;;;10.65;10.35;;;14.50;99.90;;;;;;6206139;23;20199;-81
2023/05/20 05:15:22;;;;;;;10.73;10.43;;;14.50;99.90;;;;;;6206191;23;20238;-82
2023/05/20 05:17:50;;;;;;;10.73;10.43;;;14.50;99.90;;;;;;6206035;23;20199;-83
2023/05/20 05:20:28;;;;;;;11.30;11.00;;;14.60;99.90;;;;;;6206344;23;20369;-85
2023/05/20 05:23:08;;;;;;;11.10;10.80;;;14.60;99.90;;;;;;6207505;23;20206;-83
2023/05/20 05:25:45;;;;;;;10.70;10.40;;;14.60;99.90;;;;;;6208255;23;20203;-83
2023/05/20 05:28:15;;;;;;;10.95;10.65;;;14.80;99.90;;;;;;6218946;22;20200;-83
2023/05/20 05:31:11;;;;;;;10.82;10.52;;;14.90;99.90;;;;;;6213088;23;20192;-83
2023/05/20 05:36:35;;;;;;;10.70;10.40;;;15.10;99.90;;;;;;6207383;23;20195;-83
2023/05/20 05:42:11;;;;;;;11.02;10.73;;;15.20;99.90;;;;;;6206454;23;20208;-84
2023/05/20 05:44:46;;;;;;;10.93;10.63;;;15.20;99.90;;;;;;6207641;23;20267;-83
2023/05/20 05:47:36;;;;;;;10.88;10.57;;;15.30;99.90;;;;;;6206901;23;20259;-83
2023/05/20 05:50:14;;;;;;;10.77;10.48;;;15.30;99.90;;;;;;6206860;23;20199;-84
2023/05/20 05:52:43;;;;;;;10.50;10.20;;;15.40;99.90;;;;;;6206956;23;20203;-83
2023/05/20 05:55:26;;;;;;;10.80;10.50;;;15.40;99.90;;;;;;6206140;23;20204;-82
2023/05/20 05:58:01;;;;;;;10.70;10.40;;;15.40;99.90;;;;;;6206598;23;20248;-82
2023/05/20 06:00:29;;;;;;;10.63;10.32;;;15.40;99.90;;;;;;6206395;23;20202;-84
2023/05/20 06:05:46;;;;;;;11.07;10.77;;;15.60;99.90;;;;;;6206660;23;20199;-82
2023/05/20 06:08:18;;;;;;;10.73;10.43;;;15.80;99.90;;;;;;6207242;23;20204;-82
2023/05/20 06:11:04;;;;;;;10.65;10.35;;;15.90;99.90;;;;;;6206857;23;20230;-81
2023/05/20 06:13:44;;;;;;;10.90;10.60;;;16.10;99.90;;;;;;6207440;22;20283;-81
2023/05/20 06:16:20;;;;;;;10.63;10.32;;;16.10;99.90;;;;;;6207382;23;20203;-81
2023/05/20 06:19:08;;;;;;;10.82;10.52;;;16.10;99.90;;;;;;6207299;23;20226;-82
2023/05/20 06:21:37;;;;;;;11.05;10.75;;;16.20;99.90;;;;;;6206670;23;20196;-81
2023/05/20 06:24:06;;;;;;;10.95;10.65;;;16.30;99.90;;;;;;6212654;23;20172;-82
2023/05/20 06:26:45;;;;;;;10.82;10.52;;;16.30;99.90;;;;;;6220260;22;20184;-82
2023/05/20 06:29:53;;;;;;;10.98;10.68;;;16.30;99.90;;;;;;6218793;22;20211;-83
2023/05/20 06:38:46;;;;;;;10.80;10.50;;;16.60;99.90;;;;;;6210099;23;20202;-84
2023/05/20 06:45:21;;;;;;;;;;;;;;;;;;;;;
2023/05/20 06:47:59;;;;;;;10.73;10.43;;;16.90;99.90;;;;;;6207920;23;20191;-83
2023/05/20 06:50:29;;;;;;;10.60;10.30;;;17.00;99.90;;;;;;6207522;23;20195;-83
2023/05/20 06:55:44;;;;;;;11.43;11.02;;;17.20;99.90;;;;;;6208203;23;20203;-85
2023/05/20 06:58:13;;;;;;;11.00;10.70;;;17.20;99.90;;;;;;6207888;23;20211;-83
2023/05/20 07:01:02;;;;;;;10.77;10.48;;;17.20;99.90;;;;;;6207637;23;20206;-83
2023/05/20 07:03:30;;;;;;;10.77;10.48;;;17.30;99.90;;;;;;6207172;23;20250;-84
2023/05/20 07:05:59;;;;;;;10.73;10.43;;;17.40;99.90;;;;;;6207264;23;20218;-84
2023/05/20 07:08:31;;;;;;;10.98;10.68;;;17.40;99.90;;;;;;6207899;23;20218;-84
2023/05/20 07:10:59;;;;;;;11.00;10.70;;;17.40;99.90;;;;;;6206965;23;20196;-83
2023/05/20 07:13:31;;;;;;;10.85;10.55;;;17.50;99.90;;;;;;6208740;23;20196;-84
2023/05/20 07:16:05;;;;;;;10.90;10.60;;;17.50;99.90;;;;;;6207880;23;20204;-83
2023/05/20 07:18:35;;;;;;;10.90;10.60;;;17.60;99.90;;;;;;6207817;23;20191;-84
2023/05/20 07:21:07;;;;;;;10.63;10.32;;;17.60;99.90;;;;;;6208720;23;20207;-84
2023/05/20 07:23:35;;;;;;;10.68;10.38;;;17.60;99.90;;;;;;6208270;23;20194;-84
2023/05/20 07:26:03;;;;;;;10.70;10.40;;;17.60;99.90;;;;;;6208919;23;20222;-85
2023/05/20 07:28:45;;;;;;;10.68;10.38;;;17.70;99.90;;;;;;6208466;23;20212;-84
2023/05/20 07:31:22;;;;;;;10.85;10.55;;;17.80;99.90;;;;;;6210187;23;20238;-85
2023/05/20 07:33:51;;;;;;;10.90;10.60;;;17.90;99.90;;;;;;6210739;23;20203;-85
2023/05/20 07:36:23;;;;;;;10.65;10.35;;;18.00;99.90;;;;;;6210817;23;20223;-85
2023/05/20 07:38:51;;;;;;;10.85;10.55;;;18.10;99.90;;;;;;6216767;23;20206;-85
2023/05/20 07:41:29;;;;;;;10.77;10.48;;;18.30;99.90;;;;;;6212459;23;20225;-85
2023/05/20 07:44:14;;;;;;;10.60;10.30;;;18.30;99.90;;;;;;6209620;23;20199;-84
2023/05/20 07:46:54;;;;;;;10.30;10.00;;;18.50;99.90;;;;;;6206749;23;20203;-84
2023/05/20 07:49:22;;;;;;;10.30;10.00;;;18.60;99.90;;;;;;6207263;23;20206;-83
2023/05/20 07:51:50;;;;;;;10.30;10.00;;;18.70;99.90;;;;;;6208340;23;20200;-84
2023/05/20 07:54:21;;;;;;;10.32;10.02;;;18.70;99.90;;;;;;6208075;23;20211;-83
2023/05/20 07:56:49;;;;;;;10.30;10.00;;;18.80;99.90;;;;;;6206784;23;20196;-81
2023/05/20 07:59:18;;;;;;;10.55;10.25;;;19.00;99.90;;;;;;6202616;23;20196;-84
2023/05/20 08:04:35;;;;;;;10.70;10.40;;;19.00;99.90;;;;;;6204179;23;20208;-81
2023/05/20 08:07:48;;;;;;;10.68;10.38;;;19.10;99.90;;;;;;6206517;23;20196;-85
2023/05/20 08:11:27;;;;;;;10.50;10.20;;;19.20;99.90;;;;;;6205175;23;20211;-86
2023/05/20 08:14:24;;;;;;;10.60;10.30;;;19.20;99.90;;;;;;6193289;23;20195;-85
2023/05/20 08:20:45;;;;;;;10.40;10.10;;;19.60;99.90;;;;;;6215074;22;20195;-82
2023/05/20 08:24:19;;;;;;;10.55;10.25;;;19.70;99.90;;;;;;6218820;22;20219;-84
2023/05/20 08:27:59;;;;;;;10.43;10.13;;;19.70;99.90;;;;;;6093300;23;20194;-83
2023/05/20 08:30:35;;;;;;;10.27;9.98;;;19.60;99.90;;;;;;6207461;23;20195;-82
2023/05/20 08:33:12;;;;;;;10.38;10.07;;;19.70;99.90;;;;;;6210204;23;20184;-83
2023/05/20 08:36:00;;;;;;;10.57;10.27;;;19.80;99.90;;;;;;6210794;23;20195;-83
2023/05/20 08:38:44;;;;;;;;;;;;;;;;;;;;;
2023/05/20 08:41:19;;;;;;;10.82;10.52;;;20.20;99.90;;;;;;6209810;23;20179;-83
2023/05/20 08:46:45;;;;;;;10.50;10.20;;;20.30;99.90;;;;;;6209993;23;20196;-82
2023/05/20 08:49:28;;;;;;;10.15;9.85;;;20.40;99.90;;;;;;6210055;23;20297;-83
2023/05/20 08:52:08;;;;;;;10.23;9.93;;;20.50;99.90;;;;;;6209766;23;20200;-83
2023/05/20 08:54:52;;;;;;;10.40;10.10;;;20.70;99.90;;;;;;6210015;23;20199;-84
2023/05/20 08:57:32;;;;;;;10.60;10.30;;;20.90;99.90;;;;;;6209855;23;20189;-84
2023/05/20 09:00:19;;;;;;;10.30;10.00;;;21.00;99.90;;;;;;6209815;23;20224;-85
2023/05/20 09:02:56;;;;;;;10.30;10.00;;;21.00;99.90;;;;;;6213376;23;20187;-83
2023/05/20 09:13:20;;;;;;;10.07;9.77;;;21.40;99.90;;;;;;6206008;23;20200;-85
2023/05/20 09:19:31;;;;;;;10.40;10.10;;;21.60;99.90;;;;;;6209251;23;20242;-84
2023/05/20 09:29:45;;;;;;;10.60;10.30;;;22.40;99.90;;;;;;6205005;23;20274;-84
2023/05/20 09:33:04;;;;;;;10.50;10.20;;;22.70;99.90;;;;;;6207508;23;20203;-84
2023/05/20 09:35:54;;;;;;;10.30;10.00;;;22.90;99.90;;;;;;6057818;23;20272;-84
2023/05/20 09:39:09;;;;;;;10.00;9.70;;;23.00;99.90;;;;;;6138777;23;20192;-84
2023/05/20 10:03:04;;;;;;;10.20;9.90;;;23.20;99.90;;;;;;6167089;22;20251;-85
2023/05/20 10:10:43;;;;;;;10.40;10.10;;;23.20;99.90;;;;;;6042704;23;20230;-86
2023/05/20 11:06:03;;;;;;;10.55;10.25;;;24.80;99.90;;;;;;5843484;23;20204;-84
2023/05/20 11:08:31;;;;;;;10.60;10.30;;;24.60;99.90;;;;;;6206377;23;20191;-84
2023/05/20 11:11:00;;;;;;;10.57;10.27;;;24.70;99.90;;;;;;6206398;23;20208;-84
2023/05/20 11:13:30;;;;;;;10.48;10.18;;;24.90;99.90;;;;;;6206044;23;20200;-84
2023/05/20 11:15:59;;;;;;;10.52;10.23;;;25.10;99.90;;;;;;6211159;22;20233;-84
2023/05/20 11:18:30;;;;;;;10.60;10.30;;;25.30;99.90;;;;;;6204987;23;20283;-86
2023/05/20 11:21:09;;;;;;;10.60;10.30;;;25.40;99.90;;;;;;6204461;23;20204;-85
2023/05/20 11:23:37;;;;;;;10.38;10.07;;;25.80;99.90;;;;;;6205125;23;20191;-85
2023/05/20 11:26:05;;;;;;;10.55;10.25;;;25.90;99.90;;;;;;6204655;23;20222;-85
2023/05/20 11:28:36;;;;;;;10.63;10.32;;;25.80;99.90;;;;;;6206928;23;20215;-84
2023/05/20 11:31:05;;;;;;;10.80;10.50;;;25.50;99.90;;;;;;6214249;22;20192;-85
2023/05/20 11:33:34;;;;;;;10.50;10.20;;;25.40;99.90;;;;;;6206917;23;20199;-85
2023/05/20 11:36:14;;;;;;;10.60;10.30;;;25.50;99.90;;;;;;6206103;23;20543;-85
2023/05/20 11:38:43;;;;;;;10.40;10.10;;;25.70;99.90;;;;;;6204479;23;20195;-85
2023/05/20 11:41:11;;;;;;;10.57;10.27;;;26.00;99.90;;;;;;6205639;23;20183;-85
2023/05/20 11:43:41;;;;;;;10.68;10.38;;;26.40;99.90;;;;;;6204629;23;20196;-84
2023/05/20 11:46:11;;;;;;;10.60;10.30;;;26.90;99.90;;;;;;6205041;23;20199;-85
2023/05/20 11:48:51;;;;;;;10.32;10.02;;;27.30;99.90;;;;;;6205276;23;20215;-85
2023/05/20 11:51:28;;;;;;;10.30;10.00;;;27.50;99.90;;;;;;6205490;23;20191;-85
2023/05/20 11:54:06;;;;;;;10.40;10.10;;;27.40;99.90;;;;;;6204768;23;20198;-85
2023/05/20 11:56:36;;;;;;;10.57;10.27;;;27.40;99.90;;;;;;6203788;23;20199;-86
2023/05/20 11:59:05;;;;;;;10.30;10.00;;;27.00;99.90;;;;;;6203924;23;20196;-85
2023/05/20 12:01:36;;;;;;;10.60;10.30;;;27.10;99.90;;;;;;6203370;23;20199;-86
2023/05/20 12:04:05;;;;;;;10.45;10.15;;;27.20;99.90;;;;;;6203153;23;20203;-86
2023/05/20 12:12:12;;;;;;;10.38;10.07;;;26.40;99.90;;;;;;6202150;23;20230;-86
2023/05/20 12:14:40;;;;;;;10.80;10.50;;;26.00;99.90;;;;;;6202494;23;20210;-85
2023/05/20 12:17:08;;;;;;;10.95;10.65;;;25.80;99.90;;;;;;6203222;23;20254;-85
2023/05/20 12:19:45;;;;;;;10.55;10.25;;;25.30;99.90;;;;;;6202264;23;20207;-85
2023/05/20 12:22:24;;;;;;;10.65;10.35;;;25.10;99.90;;;;;;6201300;23;20199;-85
2023/05/20 12:24:56;;;;;;;10.60;10.30;;;25.00;99.90;;;;;;6202438;23;20250;-86
2023/05/20 12:27:24;;;;;;;10.70;10.40;;;25.10;99.90;;;;;;6202685;23;20251;-86
2023/05/20 12:29:52;;;;;;;10.50;10.20;;;25.40;99.90;;;;;;6202484;23;20200;-86
2023/05/20 12:32:23;;;;;;;10.43;10.13;;;25.70;99.90;;;;;;6204386;23;20183;-86
2023/05/20 12:34:51;;;;;;;10.20;9.90;;;25.60;99.90;;;;;;6203362;23;20196;-86
2023/05/20 12:37:32;;;;;;;10.35;10.05;;;25.60;99.90;;;;;;6202670;23;20246;-86
2023/05/20 12:40:00;;;;;;;10.52;10.23;;;25.50;99.90;;;;;;6202216;23;20195;-86
2023/05/20 12:42:28;;;;;;;10.35;10.05;;;25.60;99.90;;;;;;6202010;23;20283;-85
2023/05/20 12:44:58;;;;;;;10.23;9.93;;;25.60;99.90;;;;;;6201583;23;20247;-86
2023/05/20 12:47:26;;;;;;;10.25;9.95;;;25.60;99.90;;;;;;6201980;23;20219;-86
2023/05/20 12:49:56;;;;;;;10.18;9.88;;;25.70;99.90;;;;;;6202444;23;20273;-87
2023/05/20 12:52:34;;;;;;;10.10;9.80;;;25.90;99.90;;;;;;6202403;23;20199;-86
2023/05/20 12:57:51;;;;;;;10.38;10.07;;;26.50;99.90;;;;;;6202143;23;20297;-85
2023/05/20 13:00:20;;;;;;;10.50;10.20;;;26.90;99.90;;;;;;6203703;23;20474;-84
2023/05/20 13:02:51;;;;;;;10.48;10.18;;;26.70;99.90;;;;;;6206949;23;20223;-85
2023/05/20 13:05:19;;;;;;;10.68;10.38;;;26.30;99.90;;;;;;6204540;23;20214;-85
2023/05/20 13:07:55;;;;;;;10.70;10.40;;;26.00;99.90;;;;;;6203557;23;20196;-85
2023/05/20 13:10:28;;;;;;;10.45;10.15;;;25.50;99.90;;;;;;6201965;23;20191;-85
2023/05/20 13:12:57;;;;;;;10.45;10.15;;;25.30;99.90;;;;;;6202082;23;20199;-85
2023/05/20 13:15:25;;;;;;;11.00;10.70;;;25.50;99.90;;;;;;6201956;23;20195;-85
2023/05/20 13:17:55;;;;;;;10.90;10.60;;;26.10;99.90;;;;;;6201801;23;20193;-85
2023/05/20 13:20:24;;;;;;;10.98;10.68;;;26.50;99.90;;;;;;6202571;23;20223;-85
2023/05/20 13:23:03;;;;;;;10.88;10.57;;;26.50;99.90;;;;;;6203268;23;20282;-85
2023/05/20 13:25:32;;;;;;;10.70;10.40;;;26.10;99.90;;;;;;6203207;23;20219;-85
2023/05/20 13:28:03;;;;;;;10.60;10.30;;;26.10;99.90;;;;;;6202637;23;20913;-86
2023/05/20 13:30:31;;;;;;;10.43;10.13;;;26.10;99.90;;;;;;6203484;23;20195;-86
2023/05/20 13:33:01;;;;;;;10.70;10.40;;;26.10;99.90;;;;;;6203572;23;20227;-85
2023/05/20 13:35:30;;;;;;;10.68;10.38;;;25.60;99.90;;;;;;6203154;23;20210;-85
2023/05/20 13:38:02;;;;;;;10.70;10.40;;;25.40;99.90;;;;;;6203793;23;20207;-85
2023/05/20 13:40:30;;;;;;;10.52;10.23;;;25.30;99.90;;;;;;6203629;23;20188;-85
2023/05/20 13:42:58;;;;;;;10.48;10.18;;;25.50;99.90;;;;;;6204585;23;20903;-85
2023/05/20 13:45:28;;;;;;;10.60;10.30;;;25.70;99.90;;;;;;6203798;23;20206;-85
2023/05/20 13:47:57;;;;;;;10.48;10.18;;;25.70;99.90;;;;;;6203618;23;20187;-85
2023/05/20 13:50:26;;;;;;;10.50;10.20;;;25.30;99.90;;;;;;6203882;23;20211;-85
2023/05/20 13:52:55;;;;;;;10.40;10.10;;;25.00;99.90;;;;;;6204185;23;20223;-86
2023/05/20 13:55:35;;;;;;;10.40;10.10;;;24.80;99.90;;;;;;6205429;23;20258;-85
2023/05/20 13:58:04;;;;;;;10.43;10.13;;;24.60;99.90;;;;;;6203254;23;20195;-85
2023/05/20 14:00:33;;;;;;;10.40;10.10;;;24.50;99.90;;;;;;6203830;23;20269;-85
2023/05/20 14:03:03;;;;;;;10.65;10.35;;;24.70;99.90;;;;;;6203315;23;20192;-85
2023/05/20 14:05:32;;;;;;;10.57;10.27;;;24.90;99.90;;;;;;6203624;23;20231;-85
2023/05/20 14:08:04;;;;;;;10.70;10.40;;;25.10;99.90;;;;;;6203084;23;20251;-85
2023/05/20 14:13:28;;;;;;;10.50;10.20;;;25.20;99.90;;;;;;6202854;23;20218;-85
2023/05/20 14:18:37;;;;;;;10.65;10.35;;;25.00;99.90;;;;;;6205612;23;20203;-86
2023/05/20 14:21:06;;;;;;;10.48;10.18;;;25.10;99.90;;;;;;6206161;23;20199;-85
2023/05/20 14:23:36;;;;;;;10.50;10.20;;;25.00;99.90;;;;;;6203312;23;20271;-86
2023/05/20 14:26:07;;;;;;;10.60;10.30;;;24.80;99.90;;;;;;6203495;23;20258;-86
2023/05/20 14:28:34;;;;;;;10.35;10.05;;;24.90;99.90;;;;;;6202752;22;20250;-84
2023/05/20 14:31:03;;;;;;;10.30;10.00;;;24.90;99.90;;;;;;6201524;23;20215;-84
2023/05/20 14:33:35;;;;;;;10.25;9.95;;;24.90;99.90;;;;;;6202147;23;20234;-84
2023/05/20 14:36:03;;;;;;;10.70;10.40;;;24.90;99.90;;;;;;6203298;23;20207;-84
2023/05/20 14:38:31;;;;;;;10.40;10.10;;;24.70;99.90;;;;;;6204288;23;20198;-84
2023/05/20 14:41:01;;;;;;;10.60;10.30;;;24.40;99.90;;;;;;6205560;23;20203;-83
2023/05/20 14:43:33;;;;;;;10.35;10.05;;;24.20;99.90;;;;;;6207936;23;20667;-83
2023/05/20 14:46:01;;;;;;;10.45;10.15;;;24.10;99.90;;;;;;6213932;23;20196;-84
2023/05/20 14:48:29;;;;;;;10.70;10.40;;;24.30;99.90;;;;;;6220159;22;20204;-83
2023/05/20 14:50:58;;;;;;;10.48;10.18;;;24.50;99.90;;;;;;6219679;22;20180;-83
2023/05/20 14:53:28;;;;;;;10.50;10.20;;;24.70;99.90;;;;;;6219423;22;20282;-84
2023/05/20 14:55:57;;;;;;;10.77;10.48;;;24.90;99.90;;;;;;6219716;22;20196;-81
2023/05/20 14:58:27;;;;;;;10.52;10.23;;;25.00;99.90;;;;;;6219536;22;20203;-84
2023/05/20 15:01:05;;;;;;;10.60;10.30;;;25.10;99.90;;;;;;6219408;22;20227;-84
2023/05/20 15:03:34;;;;;;;10.75;10.45;;;25.20;99.90;;;;;;6216633;23;20260;-84
2023/05/20 15:08:44;;;;;;;10.90;10.60;;;26.10;99.90;;;;;;6214251;23;20200;-85
2023/05/20 15:11:12;;;;;;;10.75;10.45;;;26.70;99.90;;;;;;6217782;23;20244;-84
2023/05/20 15:16:28;;;;;;;10.80;10.50;;;27.00;99.90;;;;;;6206733;23;20275;-84
2023/05/20 15:24:24;;;;;;;10.88;10.57;;;26.70;99.90;;;;;;6203825;23;20211;-85
2023/05/20 15:26:52;;;;;;;10.68;10.38;;;26.60;99.90;;;;;;6202704;23;20235;-85
2023/05/20 15:32:13;;;;;;;10.55;10.25;;;26.50;99.90;;;;;;6202008;23;20202;-86